Time,TemperatureF,DewpointF,PressureIn,WindDirection,WindDirectionDegrees,WindSpeedMPH,WindSpeedGustMPH,Humidity,HourlyPrecipIn,Conditions,Clouds,dailyrainin,SoftwareType,DateUTC
2013-03-14 00:00:00,31.4,17.1,30.31,NW,315,1.0,4.0,55,0.00,,,0.00,Wunderground v.1.13,2013-03-14 04:00:00,
2013-03-14 00:10:00,31.4,17.1,30.31,NW,315,1.0,4.0,55,0.00,,,0.00,Wunderground v.1.13,2013-03-14 04:10:00,
2013-03-14 00:20:00,31.4,17.1,30.31,NW,315,1.0,4.0,55,0.00,,,0.00,Wunderground v.1.13,2013-03-14 04:20:00,
2013-03-14 00:30:00,31.4,17.1,30.31,NW,315,1.0,4.0,55,0.00,,,0.00,Wunderground v.1.13,2013-03-14 04:30:00,
2013-03-14 00:40:00,31.4,17.1,30.31,NW,315,1.0,4.0,55,0.00,,,0.00,Wunderground v.1.13,2013-03-14 04:40:00,
2013-03-14 00:50:00,31.4,15.8,30.32,WNW,293,0.0,4.0,52,0.00,,,0.00,Wunderground v.1.13,2013-03-14 04:50:00,
2013-03-14 01:00:00,31.4,15.8,30.32,WNW,293,0.0,4.0,52,0.00,,,0.00,Wunderground v.1.13,2013-03-14 05:00:00,
2013-03-14 01:10:00,31.4,15.8,30.32,WNW,293,0.0,4.0,52,0.00,,,0.00,Wunderground v.1.13,2013-03-14 05:10:00,
2013-03-14 01:20:00,31.2,15.6,30.32,WNW,293,0.0,1.0,52,0.00,,,0.00,Wunderground v.1.13,2013-03-14 05:20:00,
2013-03-14 01:30:00,31.2,15.6,30.32,WNW,293,0.0,1.0,52,0.00,,,0.00,Wunderground v.1.13,2013-03-14 05:30:00,
2013-03-14 01:40:00,31.2,15.6,30.32,WNW,293,0.0,1.0,52,0.00,,,0.00,Wunderground v.1.13,2013-03-14 05:40:00,
2013-03-14 01:50:00,31.1,15.9,30.32,WNW,293,0.0,2.0,53,0.00,,,0.00,Wunderground v.1.13,2013-03-14 05:50:00,
2013-03-14 02:00:00,31.1,15.9,30.32,WNW,293,0.0,2.0,53,0.00,,,0.00,Wunderground v.1.13,2013-03-14 06:00:00,
2013-03-14 02:10:00,31.1,15.9,30.32,WNW,293,0.0,2.0,53,0.00,,,0.00,Wunderground v.1.13,2013-03-14 06:10:00,
2013-03-14 02:20:00,31.1,16.8,30.32,WNW,293,0.0,2.0,55,0.00,,,0.00,Wunderground v.1.13,2013-03-14 06:20:00,
2013-03-14 02:30:00,31.1,16.8,30.32,WNW,293,0.0,2.0,55,0.00,,,0.00,Wunderground v.1.13,2013-03-14 06:30:00,
2013-03-14 02:40:00,31.1,16.8,30.32,WNW,293,0.0,2.0,55,0.00,,,0.00,Wunderground v.1.13,2013-03-14 06:40:00,
2013-03-14 02:50:00,30.5,16.7,30.32,NW,315,0.0,1.0,56,0.00,,,0.00,Wunderground v.1.13,2013-03-14 06:50:00,
2013-03-14 03:00:00,30.5,16.7,30.32,NW,315,0.0,1.0,56,0.00,,,0.00,Wunderground v.1.13,2013-03-14 07:00:00,
2013-03-14 03:10:00,30.5,16.7,30.32,NW,315,0.0,1.0,56,0.00,,,0.00,Wunderground v.1.13,2013-03-14 07:10:00,
2013-03-14 03:20:00,29.9,17.7,30.32,NW,315,0.0,1.0,60,0.00,,,0.00,Wunderground v.1.13,2013-03-14 07:20:00,
2013-03-14 03:30:00,29.9,17.7,30.32,NW,315,0.0,1.0,60,0.00,,,0.00,Wunderground v.1.13,2013-03-14 07:30:00,
2013-03-14 03:40:00,29.9,17.7,30.32,NW,315,0.0,1.0,60,0.00,,,0.00,Wunderground v.1.13,2013-03-14 07:40:00,
2013-03-14 03:50:00,30.0,17.0,30.33,WNW,293,0.0,2.0,58,0.00,,,0.00,Wunderground v.1.13,2013-03-14 07:50:00,
2013-03-14 04:00:00,30.0,17.0,30.33,WNW,293,0.0,2.0,58,0.00,,,0.00,Wunderground v.1.13,2013-03-14 08:00:00,
2013-03-14 04:10:00,30.0,17.0,30.33,WNW,293,0.0,2.0,58,0.00,,,0.00,Wunderground v.1.13,2013-03-14 08:10:00,
2013-03-14 04:20:00,29.6,15.8,30.34,NW,315,0.0,3.0,56,0.00,,,0.00,Wunderground v.1.13,2013-03-14 08:20:00,
2013-03-14 04:30:00,29.6,15.8,30.34,NW,315,0.0,3.0,56,0.00,,,0.00,Wunderground v.1.13,2013-03-14 08:30:00,
2013-03-14 04:40:00,29.6,15.8,30.34,NW,315,0.0,3.0,56,0.00,,,0.00,Wunderground v.1.13,2013-03-14 08:40:00,
2013-03-14 04:50:00,28.4,15.9,30.35,WNW,293,0.0,2.0,59,0.00,,,0.00,Wunderground v.1.13,2013-03-14 08:50:00,
2013-03-14 05:00:00,28.4,15.9,30.35,WNW,293,0.0,2.0,59,0.00,,,0.00,Wunderground v.1.13,2013-03-14 09:00:00,
2013-03-14 06:40:00,27.8,16.1,30.36,North,360,0.0,2.0,61,0.00,,,0.00,Wunderground v.1.13,2013-03-14 10:40:00,
2013-03-14 06:50:00,27.7,16.0,30.36,WNW,296,0.0,2.0,61,0.00,,,0.00,Wunderground v.1.13,2013-03-14 10:50:00,
2013-03-14 07:00:00,27.5,16.2,30.36,WNW,296,0.0,2.0,62,0.00,,,0.00,Wunderground v.1.13,2013-03-14 11:00:00,
2013-03-14 07:10:00,27.2,16.6,30.36,WNW,296,0.0,2.0,64,0.00,,,0.00,Wunderground v.1.13,2013-03-14 11:10:00,
2013-03-14 07:20:00,26.8,16.2,30.36,WNW,296,0.0,2.0,64,0.00,,,0.00,Wunderground v.1.13,2013-03-14 11:20:00,
2013-03-14 07:30:00,26.5,16.7,30.36,WNW,296,0.0,2.0,66,0.00,,,0.00,Wunderground v.1.13,2013-03-14 11:30:00,
2013-03-14 07:40:00,26.0,16.5,30.38,WNW,296,0.0,2.0,67,0.00,,,0.00,Wunderground v.1.13,2013-03-14 11:40:00,
2013-03-14 07:50:00,25.9,16.4,30.38,WNW,296,0.0,2.0,67,0.00,,,0.00,Wunderground v.1.13,2013-03-14 11:50:00,
2013-03-14 08:00:00,25.6,16.8,30.38,WNW,296,0.0,2.0,69,0.00,,,0.00,Wunderground v.1.13,2013-03-14 12:00:00,
2013-03-14 08:10:00,25.6,17.8,30.38,WNW,296,0.0,2.0,72,0.00,,,0.00,Wunderground v.1.13,2013-03-14 12:10:00,
2013-03-14 08:20:00,25.6,17.2,30.38,WNW,296,0.0,2.0,70,0.00,,,0.00,Wunderground v.1.13,2013-03-14 12:20:00,
2013-03-14 08:30:00,25.6,16.8,30.37,WNW,296,0.0,2.0,69,0.00,,,0.00,Wunderground v.1.13,2013-03-14 12:30:00,
2013-03-14 08:40:00,25.7,16.9,30.38,WNW,296,0.0,2.0,69,0.00,,,0.00,Wunderground v.1.13,2013-03-14 12:40:00,
2013-03-14 08:50:00,26.0,17.9,30.38,WNW,296,0.0,2.0,71,0.00,,,0.00,Wunderground v.1.13,2013-03-14 12:50:00,
2013-03-14 09:00:00,26.2,17.7,30.39,WNW,296,0.0,2.0,70,0.00,,,0.00,Wunderground v.1.13,2013-03-14 13:00:00,
2013-03-14 09:10:00,26.9,17.4,30.38,WNW,296,0.0,2.0,67,0.00,,,0.00,Wunderground v.1.13,2013-03-14 13:10:00,
2013-03-14 09:20:00,28.0,17.7,30.38,WNW,296,0.0,2.0,65,0.00,,,0.00,Wunderground v.1.13,2013-03-14 13:20:00,
2013-03-14 09:30:00,28.6,17.6,30.38,WNW,296,0.0,2.0,63,0.00,,,0.00,Wunderground v.1.13,2013-03-14 13:30:00,
2013-03-14 09:40:00,29.2,16.6,30.39,WNW,302,0.0,2.0,59,0.00,,,0.00,Wunderground v.1.13,2013-03-14 13:40:00,
2013-03-14 09:50:00,29.6,16.6,30.39,NW,305,0.0,2.0,58,0.00,,,0.00,Wunderground v.1.13,2013-03-14 13:50:00,
2013-03-14 10:00:00,30.0,15.8,30.39,North,351,0.0,2.0,55,0.00,,,0.00,Wunderground v.1.13,2013-03-14 14:00:00,
2013-03-14 10:10:00,30.6,15.9,30.39,North,360,0.0,2.0,54,0.00,,,0.00,Wunderground v.1.13,2013-03-14 14:10:00,
2013-03-14 10:20:00,31.1,15.9,30.39,North,5,0.0,2.0,53,0.00,,,0.00,Wunderground v.1.13,2013-03-14 14:20:00,
2013-03-14 10:30:00,31.7,16.9,30.40,North,360,0.0,2.0,54,0.00,,,0.00,Wunderground v.1.13,2013-03-14 14:30:00,
2013-03-14 10:40:00,32.3,17.9,30.38,WNW,286,0.0,2.0,55,0.00,,,0.00,Wunderground v.1.13,2013-03-14 14:40:00,
2013-03-14 10:50:00,32.7,16.5,30.38,NW,304,0.0,2.0,51,0.00,,,0.00,Wunderground v.1.13,2013-03-14 14:50:00,
2013-03-14 11:00:00,33.4,16.3,30.38,West,279,0.0,2.0,49,0.00,,,0.00,Wunderground v.1.13,2013-03-14 15:00:00,
2013-03-14 11:10:00,34.2,16.5,30.37,SSW,212,0.0,2.0,48,0.00,,,0.00,Wunderground v.1.13,2013-03-14 15:10:00,
2013-03-14 11:20:00,34.5,16.3,30.37,SE,138,0.0,2.0,47,0.00,,,0.00,Wunderground v.1.13,2013-03-14 15:20:00,
2013-03-14 11:30:00,34.8,15.1,30.36,SW,235,0.0,2.0,44,0.00,,,0.00,Wunderground v.1.13,2013-03-14 15:30:00,
2013-03-14 11:40:00,35.2,14.9,30.36,West,260,0.0,2.0,43,0.00,,,0.00,Wunderground v.1.13,2013-03-14 15:40:00,
2013-03-14 11:50:00,36.2,14.2,30.36,SW,236,0.0,2.0,40,0.00,,,0.00,Wunderground v.1.13,2013-03-14 15:50:00,
2013-03-14 12:00:00,36.7,15.2,30.36,WSW,242,0.0,2.0,41,0.00,,,0.00,Wunderground v.1.13,2013-03-14 16:00:00,
2013-03-14 12:10:00,36.4,14.3,30.36,WSW,242,0.0,2.0,40,0.00,,,0.00,Wunderground v.1.13,2013-03-14 16:10:00,
2013-03-14 12:20:00,36.9,13.6,30.36,WSW,242,0.0,2.0,38,0.00,,,0.00,Wunderground v.1.13,2013-03-14 16:20:00,
2013-03-14 12:30:00,37.2,15.1,30.35,WNW,298,1.0,2.0,40,0.00,,,0.00,Wunderground v.1.13,2013-03-14 16:30:00,
2013-03-14 12:40:00,37.9,12.6,30.36,SW,227,0.0,2.0,35,0.00,,,0.00,Wunderground v.1.13,2013-03-14 16:40:00,
2013-03-14 12:50:00,38.7,14.6,30.36,NW,311,0.0,2.0,37,0.00,,,0.00,Wunderground v.1.13,2013-03-14 16:50:00,
2013-03-14 13:00:00,39.0,12.3,30.36,NW,310,1.0,1.0,33,0.00,,,0.00,Wunderground v.1.13,2013-03-14 17:00:00,
2013-03-14 13:10:00,39.0,12.3,30.36,SW,221,1.0,1.0,33,0.00,,,0.00,Wunderground v.1.13,2013-03-14 17:10:00,
2013-03-14 13:20:00,40.0,13.8,30.36,WNW,294,1.0,1.0,34,0.00,,,0.00,Wunderground v.1.13,2013-03-14 17:20:00,
2013-03-14 13:30:00,40.7,15.8,30.34,WNW,286,1.0,1.0,36,0.00,,,0.00,Wunderground v.1.13,2013-03-14 17:30:00,
2013-03-14 13:40:00,41.2,17.5,30.34,SSW,211,0.0,3.0,38,0.00,,,0.00,Wunderground v.1.13,2013-03-14 17:40:00,
2013-03-14 13:50:00,41.4,15.8,30.34,South,175,1.0,1.0,35,0.00,,,0.00,Wunderground v.1.13,2013-03-14 17:50:00,
2013-03-14 14:00:00,42.0,14.2,30.32,NW,308,1.0,2.0,32,0.00,,,0.00,Wunderground v.1.13,2013-03-14 18:00:00,
2013-03-14 14:10:00,42.2,17.8,30.32,South,184,1.0,1.0,37,0.00,,,0.00,Wunderground v.1.13,2013-03-14 18:10:00,
2013-03-14 14:20:00,43.2,14.6,30.32,NNW,345,1.0,1.0,31,0.00,,,0.00,Wunderground v.1.13,2013-03-14 18:20:00,
2013-03-14 14:30:00,44.2,13.9,30.31,WNW,301,0.0,6.0,29,0.00,,,0.00,Wunderground v.1.13,2013-03-14 18:30:00,
2013-03-14 14:40:00,43.8,13.6,30.31,NW,304,1.0,1.0,29,0.00,,,0.00,Wunderground v.1.13,2013-03-14 18:40:00,
2013-03-14 14:50:00,43.1,14.5,30.31,WSW,254,1.0,2.0,31,0.00,,,0.00,Wunderground v.1.13,2013-03-14 18:50:00,
2013-03-14 15:00:00,43.2,15.3,30.31,WSW,243,1.0,2.0,32,0.00,,,0.00,Wunderground v.1.13,2013-03-14 19:00:00,
2013-03-14 15:10:00,43.0,12.9,30.30,SW,214,1.0,1.0,29,0.00,,,0.00,Wunderground v.1.13,2013-03-14 19:10:00,
2013-03-14 15:20:00,43.2,13.8,30.30,NW,325,1.0,1.0,30,0.00,,,0.00,Wunderground v.1.13,2013-03-14 19:20:00,
2013-03-14 15:30:00,43.2,15.3,30.29,WNW,299,0.0,2.0,32,0.00,,,0.00,Wunderground v.1.13,2013-03-14 19:30:00,
2013-03-14 15:40:00,43.1,12.2,30.29,SW,215,1.0,1.0,28,0.00,,,0.00,Wunderground v.1.13,2013-03-14 19:40:00,
2013-03-14 15:50:00,43.5,14.1,30.29,WNW,284,0.0,2.0,30,0.00,,,0.00,Wunderground v.1.13,2013-03-14 19:50:00,
2013-03-14 16:00:00,43.0,13.6,30.27,SW,232,0.0,2.0,30,0.00,,,0.00,Wunderground v.1.13,2013-03-14 20:00:00,
2013-03-14 16:10:00,43.2,14.6,30.27,SSW,195,0.0,2.0,31,0.00,,,0.00,Wunderground v.1.13,2013-03-14 20:10:00,
2013-03-14 16:20:00,43.0,15.1,30.27,WNW,288,1.0,2.0,32,0.00,,,0.00,Wunderground v.1.13,2013-03-14 20:20:00,
2013-03-14 16:30:00,43.0,15.1,30.27,NW,312,0.0,2.0,32,0.00,,,0.00,Wunderground v.1.13,2013-03-14 20:30:00,
2013-03-14 16:40:00,43.1,12.2,30.27,WNW,290,0.0,2.0,28,0.00,,,0.00,Wunderground v.1.13,2013-03-14 20:40:00,
2013-03-14 16:50:00,42.8,13.5,30.27,West,273,1.0,1.0,30,0.00,,,0.00,Wunderground v.1.13,2013-03-14 20:50:00,
2013-03-14 17:00:00,43.0,14.4,30.27,NW,313,0.0,2.0,31,0.00,,,0.00,Wunderground v.1.13,2013-03-14 21:00:00,
2013-03-14 17:10:00,43.1,16.6,30.26,NW,313,0.0,2.0,34,0.00,,,0.00,Wunderground v.1.13,2013-03-14 21:10:00,
2013-03-14 17:20:00,43.1,15.9,30.26,WNW,298,1.0,2.0,33,0.00,,,0.00,Wunderground v.1.13,2013-03-14 21:20:00,
2013-03-14 17:30:00,42.8,16.3,30.26,NW,315,1.0,1.0,34,0.00,,,0.00,Wunderground v.1.13,2013-03-14 21:30:00,
2013-03-14 17:40:00,43.4,17.5,30.26,SSW,212,1.0,2.0,35,0.00,,,0.00,Wunderground v.1.13,2013-03-14 21:40:00,
2013-03-14 17:50:00,43.4,15.5,30.26,WNW,286,0.0,2.0,32,0.00,,,0.00,Wunderground v.1.13,2013-03-14 21:50:00,
2013-03-14 18:00:00,43.7,17.8,30.25,WNW,303,0.0,2.0,35,0.00,,,0.00,Wunderground v.1.13,2013-03-14 22:00:00,
2013-03-14 18:10:00,45.0,15.4,30.25,WSW,239,1.0,1.0,30,0.00,,,0.00,Wunderground v.1.13,2013-03-14 22:10:00,
2013-03-14 18:20:00,45.1,15.5,30.25,WNW,290,1.0,1.0,30,0.00,,,0.00,Wunderground v.1.13,2013-03-14 22:20:00,
2013-03-14 18:30:00,45.1,15.5,30.25,SSW,192,0.0,2.0,30,0.00,,,0.00,Wunderground v.1.13,2013-03-14 22:30:00,
2013-03-14 18:40:00,45.7,16.0,30.25,West,272,0.0,2.0,30,0.00,,,0.00,Wunderground v.1.13,2013-03-14 22:40:00,
2013-03-14 18:50:00,45.7,15.2,30.25,West,263,0.0,2.0,29,0.00,,,0.00,Wunderground v.1.13,2013-03-14 22:50:00,
2013-03-14 19:00:00,45.0,15.4,30.25,SW,225,0.0,2.0,30,0.00,,,0.00,Wunderground v.1.13,2013-03-14 23:00:00,
2013-03-14 19:10:00,44.0,17.4,30.25,WSW,250,0.0,2.0,34,0.00,,,0.00,Wunderground v.1.13,2013-03-14 23:10:00,
2013-03-14 19:20:00,43.0,18.5,30.25,South,181,0.0,2.0,37,0.00,,,0.00,Wunderground v.1.13,2013-03-14 23:20:00,
2013-03-14 19:30:00,42.2,17.8,30.25,SSE,162,0.0,2.0,37,0.00,,,0.00,Wunderground v.1.13,2013-03-14 23:30:00,
2013-03-14 19:40:00,42.0,17.6,30.25,SSE,162,0.0,3.0,37,0.00,,,0.00,Wunderground v.1.13,2013-03-14 23:40:00,
2013-03-14 19:50:00,41.7,18.5,30.25,SSE,162,0.0,3.0,39,0.00,,,0.00,Wunderground v.1.13,2013-03-14 23:50:00,
2013-03-14 20:00:00,41.1,19.2,30.25,SSE,162,0.0,3.0,41,0.00,,,0.00,Wunderground v.1.13,2013-03-15 00:00:00,
2013-03-14 20:10:00,40.4,18.5,30.25,SSE,162,0.0,3.0,41,0.00,,,0.00,Wunderground v.1.13,2013-03-15 00:10:00,
2013-03-14 20:20:00,39.8,20.2,30.25,SSE,162,0.0,3.0,45,0.00,,,0.00,Wunderground v.1.13,2013-03-15 00:20:00,
2013-03-14 20:30:00,39.2,21.1,30.24,SSE,162,0.0,3.0,48,0.00,,,0.00,Wunderground v.1.13,2013-03-15 00:30:00,
2013-03-14 20:40:00,39.0,21.9,30.25,SSE,162,0.0,3.0,50,0.00,,,0.00,Wunderground v.1.13,2013-03-15 00:40:00,
2013-03-14 20:50:00,38.5,20.5,30.25,SSE,162,0.0,3.0,48,0.00,,,0.00,Wunderground v.1.13,2013-03-15 00:50:00,
2013-03-14 21:00:00,38.1,20.6,30.25,SSE,162,0.0,3.0,49,0.00,,,0.00,Wunderground v.1.13,2013-03-15 01:00:00,
2013-03-14 21:10:00,37.8,23.5,30.25,SSE,162,0.0,3.0,56,0.00,,,0.00,Wunderground v.1.13,2013-03-15 01:10:00,
2013-03-14 21:20:00,37.5,24.5,30.25,SSE,162,0.0,3.0,59,0.00,,,0.00,Wunderground v.1.13,2013-03-15 01:20:00,
2013-03-14 21:30:00,37.4,25.2,30.25,SSE,162,0.0,3.0,61,0.00,,,0.00,Wunderground v.1.13,2013-03-15 01:30:00,
2013-03-14 21:40:00,37.5,25.3,30.25,SSE,162,0.0,3.0,61,0.00,,,0.00,Wunderground v.1.13,2013-03-15 01:40:00,
2013-03-14 21:50:00,37.7,22.5,30.25,SSE,162,0.0,3.0,54,0.00,,,0.00,Wunderground v.1.13,2013-03-15 01:50:00,
2013-03-14 22:00:00,37.8,22.2,30.25,SSE,162,0.0,3.0,53,0.00,,,0.00,Wunderground v.1.13,2013-03-15 02:00:00,
2013-03-14 22:10:00,38.1,21.5,30.25,SSE,162,0.0,3.0,51,0.00,,,0.00,Wunderground v.1.13,2013-03-15 02:10:00,
2013-03-14 22:20:00,38.4,19.4,30.25,SSE,162,0.0,3.0,46,0.00,,,0.00,Wunderground v.1.13,2013-03-15 02:20:00,
2013-03-14 22:30:00,38.7,19.7,30.24,SSE,162,0.0,3.0,46,0.00,,,0.00,Wunderground v.1.13,2013-03-15 02:30:00,
2013-03-14 22:40:00,38.7,21.2,30.23,SSE,162,0.0,3.0,49,0.00,,,0.00,Wunderground v.1.13,2013-03-15 02:40:00,
2013-03-14 22:50:00,38.4,20.9,30.23,SSE,162,0.0,3.0,49,0.00,,,0.00,Wunderground v.1.13,2013-03-15 02:50:00,
2013-03-14 23:00:00,38.1,21.5,30.24,SSE,162,0.0,3.0,51,0.00,,,0.00,Wunderground v.1.13,2013-03-15 03:00:00,
2013-03-14 23:10:00,37.9,20.4,30.25,SSE,162,0.0,3.0,49,0.00,,,0.00,Wunderground v.1.13,2013-03-15 03:10:00,
2013-03-14 23:20:00,37.9,22.3,30.25,SSE,162,0.0,3.0,53,0.00,,,0.00,Wunderground v.1.13,2013-03-15 03:20:00,
2013-03-14 23:30:00,37.8,22.6,30.24,SSE,162,0.0,3.0,54,0.00,,,0.00,Wunderground v.1.13,2013-03-15 03:30:00,
2013-03-14 23:40:00,37.5,22.8,30.24,SSE,162,0.0,3.0,55,0.00,,,0.00,Wunderground v.1.13,2013-03-15 03:40:00,
2013-03-14 23:50:00,37.2,23.4,30.24,SSE,162,0.0,3.0,57,0.00,,,0.00,Wunderground v.1.13,2013-03-15 03:50:00,